Time;durP1;ratioP1;P1;durP2;ratioP2;P2;SDS_P1;SDS_P2;PMS_P1;PMS_P2;Temp;Humidity;BMP_temperature;BMP_pressure;BME280_temperature;BME280_humidity;BME280_pressure;Samples;Min_cycle;Max_cycle;Signal;HPM_P1;HPM_P2
2022/12/01 00:00:38;;;;;;;116.13;40.55;;;;;;;;;;5025792;28;20049;-62
2022/12/01 00:03:04;;;;;;;117.38;38.40;;;;;;;;;;5027506;28;20049;-61
2022/12/01 00:05:31;;;;;;;108.43;37.83;;;;;;;;;;5025843;28;20486;-61
2022/12/01 00:07:58;;;;;;;118.75;42.03;;;;;;;;;;5026803;28;20545;-61
2022/12/01 00:10:27;;;;;;;118.72;39.80;;;;;;;;;;5025415;28;21270;-61
2022/12/01 00:12:54;;;;;;;118.75;42.45;;;;;;;;;;5028299;28;20047;-62
2022/12/01 00:15:21;;;;;;;129.15;42.90;;;;;;;;;;5030028;28;20552;-62
2022/12/01 00:17:47;;;;;;;120.22;39.65;;;;;;;;;;5030061;28;20441;-61
2022/12/01 00:20:14;;;;;;;119.07;40.42;;;;;;;;;;5072086;22;1060503;-62
2022/12/01 00:22:44;;;;;;;117.68;40.05;;;;;;;;;;5045581;22;20069;-61
2022/12/01 00:25:11;;;;;;;119.15;40.72;;;;;;;;;;5009855;28;20479;-60
2022/12/01 00:27:37;;;;;;;124.70;40.97;;;;;;;;;;5010788;28;20038;-61
2022/12/01 00:30:03;;;;;;;124.35;40.45;;;;;;;;;;5010678;28;20050;-61
2022/12/01 00:32:30;;;;;;;123.15;40.85;;;;;;;;;;5004478;28;20050;-61
2022/12/01 00:34:56;;;;;;;123.15;41.72;;;;;;;;;;5009335;28;20050;-61
2022/12/01 00:37:35;;;;;;;120.57;40.67;;;;;;;;;;5035068;22;20106;-61
2022/12/01 00:40:02;;;;;;;126.85;38.72;;;;;;;;;;5055534;22;20057;-61
2022/12/01 00:42:28;;;;;;;125.85;40.38;;;;;;;;;;5030367;28;20439;-61
2022/12/01 00:44:54;;;;;;;123.97;42.30;;;;;;;;;;5030912;28;20049;-61
2022/12/01 00:47:20;;;;;;;121.40;40.30;;;;;;;;;;5029452;28;20513;-61
2022/12/01 00:49:47;;;;;;;121.68;41.67;;;;;;;;;;5030616;28;20072;-61
2022/12/01 00:52:14;;;;;;;120.68;38.75;;;;;;;;;;5029174;28;20091;-61
2022/12/01 00:54:40;;;;;;;119.85;40.10;;;;;;;;;;5029095;28;20449;-62
2022/12/01 00:57:06;;;;;;;122.18;40.92;;;;;;;;;;5035271;28;20057;-61
2022/12/01 00:59:33;;;;;;;132.30;42.85;;;;;;;;;;5034764;28;20094;-61
2022/12/01 01:01:59;;;;;;;119.07;40.60;;;;;;;;;;5029199;28;20046;-61
2022/12/01 01:04:25;;;;;;;124.45;42.20;;;;;;;;;;5032089;28;20052;-61
2022/12/01 01:06:51;;;;;;;117.20;40.22;;;;;;;;;;5033948;28;20045;-61
2022/12/01 01:09:17;;;;;;;118.35;42.40;;;;;;;;;;5033431;28;20517;-61
2022/12/01 01:11:43;;;;;;;123.75;40.03;;;;;;;;;;5032035;28;20060;-64
2022/12/01 01:14:09;;;;;;;121.85;40.63;;;;;;;;;;5034195;28;20553;-61
2022/12/01 01:16:35;;;;;;;127.57;42.08;;;;;;;;;;5032436;28;20133;-61
2022/12/01 01:19:01;;;;;;;119.93;41.35;;;;;;;;;;5033653;28;20048;-61
2022/12/01 01:21:28;;;;;;;119.10;41.00;;;;;;;;;;5033064;28;20053;-61
2022/12/01 01:23:54;;;;;;;125.65;40.72;;;;;;;;;;5032081;28;20043;-62
2022/12/01 01:26:22;;;;;;;130.02;41.83;;;;;;;;;;5034150;28;20049;-61
2022/12/01 01:28:48;;;;;;;131.90;41.75;;;;;;;;;;5033972;28;20103;-60
2022/12/01 01:31:16;;;;;;;127.28;42.05;;;;;;;;;;5032872;28;20401;-61
2022/12/01 01:33:43;;;;;;;119.93;41.88;;;;;;;;;;5032919;28;20033;-61
2022/12/01 01:36:09;;;;;;;126.25;41.78;;;;;;;;;;5033615;28;20124;-61
2022/12/01 01:38:35;;;;;;;126.70;41.03;;;;;;;;;;5032822;28;20073;-61
2022/12/01 01:41:02;;;;;;;133.52;44.13;;;;;;;;;;5033345;28;20140;-62
2022/12/01 01:43:43;;;;;;;125.00;40.35;;;;;;;;;;5034151;28;20060;-61
2022/12/01 01:46:11;;;;;;;126.07;42.05;;;;;;;;;;5028998;28;20042;-61
2022/12/01 01:48:38;;;;;;;135.70;41.05;;;;;;;;;;5032571;28;20049;-61
2022/12/01 01:51:04;;;;;;;124.60;41.90;;;;;;;;;;5032898;28;20041;-62
2022/12/01 01:53:31;;;;;;;131.68;42.00;;;;;;;;;;5031959;28;20060;-61
2022/12/01 01:55:57;;;;;;;126.15;41.80;;;;;;;;;;5033490;28;20124;-61
2022/12/01 01:58:23;;;;;;;113.03;41.50;;;;;;;;;;5033387;28;20049;-61
2022/12/01 02:00:49;;;;;;;117.40;39.67;;;;;;;;;;5033062;28;20067;-62
2022/12/01 02:03:16;;;;;;;125.22;38.55;;;;;;;;;;5031428;28;20041;-62
2022/12/01 02:05:46;;;;;;;132.25;40.63;;;;;;;;;;5032884;28;20045;-61
2022/12/01 02:08:12;;;;;;;129.02;40.60;;;;;;;;;;5032922;28;20076;-61
2022/12/01 02:10:50;;;;;;;132.98;42.15;;;;;;;;;;5028952;28;20494;-61
2022/12/01 02:13:36;;;;;;;132.75;42.33;;;;;;;;;;5031469;28;20049;-61
2022/12/01 02:16:09;;;;;;;128.77;40.75;;;;;;;;;;5022691;28;20568;-61
2022/12/01 02:19:00;;;;;;;138.98;42.40;;;;;;;;;;5027122;28;20548;-61
2022/12/01 02:21:36;;;;;;;128.73;40.85;;;;;;;;;;5031456;28;20509;-61
2022/12/01 02:24:02;;;;;;;131.88;41.08;;;;;;;;;;5032679;28;20053;-61
2022/12/01 02:26:34;;;;;;;124.22;40.30;;;;;;;;;;5032134;28;20129;-61
2022/12/01 02:29:06;;;;;;;100.85;36.80;;;;;;;;;;5033093;28;20508;-61
2022/12/01 02:31:39;;;;;;;122.30;39.15;;;;;;;;;;5030006;28;21842;-61
2022/12/01 02:34:10;;;;;;;122.50;41.97;;;;;;;;;;5033006;28;20041;-61
2022/12/01 02:36:43;;;;;;;116.07;41.05;;;;;;;;;;5031205;28;20115;-61
2022/12/01 02:39:34;;;;;;;130.88;40.53;;;5.50;99.90;;;;;;5028804;28;20037;-61
2022/12/01 02:42:47;;;;;;;128.05;40.50;;;;;;;;;;5031910;28;20057;-61
2022/12/01 02:45:01;;;;;;;123.60;40.38;;;;;;;;;;5024744;28;20100;-61
2022/12/01 02:47:27;;;;;;;135.23;42.45;;;;;;;;;;5011294;28;20069;-61
2022/12/01 02:49:54;;;;;;;122.13;39.38;;;;;;;;;;5020903;28;20494;-61
2022/12/01 02:52:22;;;;;;;123.75;40.55;;;;;;;;;;5028791;28;20091;-60
2022/12/01 02:54:49;;;;;;;140.52;43.47;;;;;;;;;;5032309;28;20049;-61
2022/12/01 02:57:16;;;;;;;131.13;43.20;;;;;;;;;;5031471;28;20132;-61
2022/12/01 02:59:45;;;;;;;117.35;40.17;;;;;;;;;;5031392;28;20556;-61
2022/12/01 03:02:23;;;;;;;118.88;39.83;;;;;;;;;;5032579;28;20124;-61
2022/12/01 03:04:56;;;;;;;122.57;40.50;;;;;;;;;;5031893;28;20124;-61
2022/12/01 03:07:23;;;;;;;129.82;41.50;;;;;;;;;;5032357;28;20049;-60
2022/12/01 03:09:59;;;;;;;124.13;42.15;;;;;;;;;;5031706;28;20532;-60
2022/12/01 03:12:34;;;;;;;141.70;44.90;;;;;;;;;;5031412;28;20072;-61
2022/12/01 03:15:19;;;;;;;132.30;40.03;;;;;;;;;;5029896;28;20100;-61
2022/12/01 03:17:52;;;;;;;114.00;37.15;;;;;;;;;;5029039;28;20096;-60
2022/12/01 03:20:32;;;;;;;124.70;38.97;;;;;;;;;;5026969;28;20045;-61
2022/12/01 03:23:06;;;;;;;124.82;40.30;;;;;;;;;;5029152;28;20041;-61
2022/12/01 03:25:32;;;;;;;123.22;38.35;;;;;;;;;;5031334;28;20080;-61
2022/12/01 03:27:59;;;;;;;128.90;43.03;;;;;;;;;;5011038;28;20141;-61
2022/12/01 03:30:27;;;;;;;119.30;41.78;;;;;;;;;;5027122;28;20536;-62
2022/12/01 03:33:00;;;;;;;140.95;41.40;;;;;;;;;;5041365;28;20049;-61
2022/12/01 03:35:29;;;;;;;106.05;36.78;;;;;;;;;;5031701;28;20144;-61
2022/12/01 03:38:04;;;;;;;119.18;40.28;;;;;;;;;;5045830;28;20045;-61
2022/12/01 03:40:30;;;;;;;119.90;41.20;;;;;;;;;;5029636;28;20054;-61
2022/12/01 03:42:59;;;;;;;123.10;39.03;;;;;;;;;;5030652;28;20077;-62
2022/12/01 03:45:34;;;;;;;124.90;40.60;;;;;;;;;;5031013;28;20579;-61
2022/12/01 03:48:00;;;;;;;122.45;41.05;;;;;;;;;;5031896;28;20099;-61
2022/12/01 03:50:31;;;;;;;125.78;39.33;;;;;;;;;;5029454;28;20052;-62
2022/12/01 03:53:19;;;;;;;114.50;38.63;;;;;;;;;;5065065;22;20064;-61
2022/12/01 03:55:47;;;;;;;117.80;39.28;;;;;;;;;;5014700;28;20053;-62
2022/12/01 03:58:18;;;;;;;127.65;41.63;;;;;;;;;;5015132;28;20061;-61
2022/12/01 04:00:48;;;;;;;120.90;38.47;;;;;;;;;;5024358;28;20038;-61
2022/12/01 04:03:19;;;;;;;112.00;37.55;;;;;;;;;;5029799;28;20045;-61
2022/12/01 04:05:45;;;;;;;120.60;40.30;;;;;;;;;;5029728;28;20061;-61
2022/12/01 04:08:36;;;;;;;117.90;38.85;;;5.20;99.90;;;;;;5051056;22;20057;-61
2022/12/01 04:12:28;;;;;;;108.43;38.20;;;;;;;;;;5002506;22;20051;-61
2022/12/01 04:13:48;;;;;;;132.02;39.97;;;;;;;;;;5030463;28;20057;-61
2022/12/01 04:16:14;;;;;;;116.75;40.17;;;;;;;;;;5047573;28;20041;-61
2022/12/01 04:18:40;;;;;;;121.78;41.05;;;;;;;;;;5048825;28;20482;-62
2022/12/01 04:21:06;;;;;;;122.82;39.25;;;;;;;;;;5046701;28;20119;-61
2022/12/01 04:26:17;;;;;;;114.60;37.15;;;;;;;;;;5050426;28;20064;-60
2022/12/01 04:28:43;;;;;;;108.25;37.67;;;;;;;;;;5049997;28;20041;-61
2022/12/01 04:31:09;;;;;;;100.90;37.28;;;;;;;;;;5053556;28;20390;-61
2022/12/01 04:33:35;;;;;;;111.80;37.40;;;;;;;;;;5054589;28;20053;-61
2022/12/01 04:36:01;;;;;;;118.95;39.03;;;;;;;;;;5035884;28;20048;-61
2022/12/01 04:38:27;;;;;;;134.63;40.28;;;;;;;;;;5053747;28;20067;-61
2022/12/01 04:40:53;;;;;;;118.43;38.15;;;;;;;;;;5052558;28;20493;-61
2022/12/01 04:43:19;;;;;;;131.50;41.80;;;;;;;;;;5037824;28;20102;-61
2022/12/01 04:45:45;;;;;;;130.57;40.95;;;;;;;;;;5036923;28;20045;-61
2022/12/01 04:48:11;;;;;;;121.35;38.55;;;;;;;;;;5051852;28;20047;-61
2022/12/01 04:50:37;;;;;;;116.30;39.17;;;;;;;;;;5052515;28;21639;-61
2022/12/01 04:53:04;;;;;;;122.38;40.97;;;;;;;;;;5054836;28;20048;-61
2022/12/01 04:55:30;;;;;;;136.90;41.10;;;;;;;;;;5054570;28;20045;-61
2022/12/01 04:57:56;;;;;;;131.27;40.45;;;;;;;;;;5051007;28;20059;-61
2022/12/01 05:00:23;;;;;;;144.60;42.40;;;;;;;;;;5053626;28;20086;-61
2022/12/01 05:02:49;;;;;;;109.30;37.42;;;;;;;;;;5027094;28;20037;-61
2022/12/01 05:05:15;;;;;;;133.23;42.38;;;;;;;;;;5053214;28;20041;-61
2022/12/01 05:07:41;;;;;;;155.75;44.50;;;;;;;;;;5055039;28;20048;-61
2022/12/01 05:10:07;;;;;;;152.73;44.72;;;;;;;;;;5054058;28;20064;-61
2022/12/01 05:12:33;;;;;;;148.27;43.53;;;;;;;;;;5052025;28;20072;-61
2022/12/01 05:14:59;;;;;;;137.98;41.97;;;;;;;;;;5053487;28;20083;-61
2022/12/01 05:17:25;;;;;;;150.27;44.92;;;;;;;;;;5035486;28;20128;-61
2022/12/01 05:22:36;;;;;;;145.23;44.65;;;;;;;;;;5053976;28;20128;-61
2022/12/01 05:25:02;;;;;;;151.40;46.03;;;;;;;;;;5051951;28;20080;-60
2022/12/01 05:27:28;;;;;;;157.95;44.83;;;;;;;;;;5053712;28;20072;-61
2022/12/01 05:29:54;;;;;;;152.30;45.25;;;;;;;;;;5053664;28;20481;-61
2022/12/01 05:32:20;;;;;;;149.10;46.47;;;;;;;;;;5010434;28;20128;-61
2022/12/01 05:34:46;;;;;;;133.77;43.78;;;;;;;;;;5051519;28;20072;-61
2022/12/01 05:37:12;;;;;;;149.30;45.92;;;;;;;;;;5054730;28;20386;-61
2022/12/01 05:39:39;;;;;;;144.07;45.15;;;;;;;;;;5052459;28;20110;-61
2022/12/01 05:42:05;;;;;;;141.40;44.10;;;;;;;;;;5035714;28;20114;-61
2022/12/01 05:44:31;;;;;;;145.18;42.03;;;;;;;;;;5052124;28;20048;-61
2022/12/01 05:46:57;;;;;;;145.95;44.22;;;;;;;;;;5052766;28;20056;-61
2022/12/01 05:49:23;;;;;;;159.15;45.92;;;;;;;;;;5052302;28;20045;-61
2022/12/01 05:51:49;;;;;;;143.68;45.63;;;;;;;;;;5052016;28;20489;-61
2022/12/01 05:54:15;;;;;;;147.20;45.38;;;;;;;;;;5053514;28;20044;-62
2022/12/01 05:56:41;;;;;;;136.95;42.42;;;;;;;;;;5052080;28;20075;-62
2022/12/01 05:59:07;;;;;;;149.15;43.47;;;;;;;;;;5018758;28;20045;-61
2022/12/01 06:01:33;;;;;;;130.15;42.38;;;;;;;;;;5044109;28;20044;-61
2022/12/01 06:03:59;;;;;;;155.43;47.45;;;;;;;;;;5052509;28;20049;-61
2022/12/01 06:06:25;;;;;;;139.23;43.47;;;;;;;;;;5047443;28;20164;-61
2022/12/01 06:08:51;;;;;;;135.07;42.47;;;;;;;;;;5018725;28;20098;-61
2022/12/01 06:11:17;;;;;;;144.30;45.50;;;;;;;;;;5049630;28;20135;-62
2022/12/01 06:13:43;;;;;;;150.15;43.40;;;;;;;;;;5051409;28;20511;-61
2022/12/01 06:16:09;;;;;;;143.50;44.08;;;;;;;;;;5047657;28;20069;-63
2022/12/01 06:18:37;;;;;;;152.98;44.67;;;;;;;;;;5025713;28;20128;-61
2022/12/01 06:21:04;;;;;;;144.63;46.58;;;;;;;;;;5050684;28;20055;-61
2022/12/01 06:23:30;;;;;;;150.45;46.03;;;;;;;;;;5043028;28;20067;-61
2022/12/01 06:25:56;;;;;;;144.63;43.90;;;;;;;;;;5049872;28;20061;-62
2022/12/01 06:28:22;;;;;;;146.73;46.50;;;;;;;;;;5051080;28;20072;-63
2022/12/01 06:30:49;;;;;;;148.63;44.50;;;;;;;;;;5033058;28;20052;-61
2022/12/01 06:33:15;;;;;;;143.80;45.60;;;;;;;;;;5053523;28;20041;-61
2022/12/01 06:35:41;;;;;;;142.00;43.72;;;;;;;;;;5050816;28;20049;-62
2022/12/01 06:38:09;;;;;;;134.38;45.72;;;;;;;;;;5052580;28;20052;-61
2022/12/01 06:40:35;;;;;;;133.43;44.47;;;;;;;;;;5034298;28;20086;-61
2022/12/01 06:43:01;;;;;;;151.98;45.95;;;;;;;;;;5050100;28;20047;-60
2022/12/01 06:45:28;;;;;;;153.80;45.65;;;;;;;;;;5052122;28;20049;-61
2022/12/01 06:47:54;;;;;;;149.23;46.17;;;;;;;;;;5052528;28;20040;-60
2022/12/01 06:50:20;;;;;;;142.50;43.42;;;;;;;;;;5051415;28;20085;-61
2022/12/01 06:52:47;;;;;;;134.50;43.35;;;;;;;;;;5031533;28;20048;-61
2022/12/01 06:55:13;;;;;;;116.25;40.88;;;;;;;;;;5030689;28;20056;-62
2022/12/01 06:57:39;;;;;;;139.18;42.90;;;;;;;;;;5031447;28;20835;-63
2022/12/01 07:00:07;;;;;;;177.07;49.60;;;;;;;;;;5052657;28;20045;-61
2022/12/01 07:02:33;;;;;;;132.30;42.28;;;;;;;;;;5052122;28;20057;-61
2022/12/01 07:04:59;;;;;;;125.80;40.90;;;;;;;;;;5051550;28;20076;-61
2022/12/01 07:07:25;;;;;;;131.35;43.20;;;;;;;;;;5050695;28;20049;-61
2022/12/01 07:09:51;;;;;;;127.03;38.00;;;;;;;;;;5033731;28;20194;-61
2022/12/01 07:12:17;;;;;;;150.15;44.03;;;;;;;;;;5052536;28;20072;-61
2022/12/01 07:14:44;;;;;;;144.20;42.30;;;;;;;;;;5041333;28;20045;-59
2022/12/01 07:17:10;;;;;;;150.45;44.40;;;;;;;;;;5051908;28;20040;-62
2022/12/01 07:19:36;;;;;;;132.10;43.63;;;;;;;;;;5052443;28;20397;-58
2022/12/01 07:22:02;;;;;;;127.40;39.15;;;;;;;;;;5049090;28;20041;-61
2022/12/01 07:24:29;;;;;;;129.27;41.95;;;;;;;;;;5051357;28;20125;-61
2022/12/01 07:26:55;;;;;;;143.35;39.60;;;;;;;;;;5067439;23;20469;-61
2022/12/01 07:29:21;;;;;;;153.48;42.75;;;;;;;;;;5010636;28;20084;-61
2022/12/01 07:31:47;;;;;;;121.45;37.63;;;;;;;;;;4991634;28;20077;-61
2022/12/01 07:34:13;;;;;;;128.60;40.03;;;;;;;;;;5010805;28;20525;-61
2022/12/01 07:36:39;;;;;;;106.65;35.20;;;;;;;;;;5009425;28;20050;-64
2022/12/01 07:39:06;;;;;;;124.05;39.63;;;;;;;;;;4995116;28;20133;-61
2022/12/01 07:41:32;;;;;;;127.47;37.03;;;;;;;;;;5012004;28;20100;-61
2022/12/01 07:43:59;;;;;;;115.93;35.92;;;;;;;;;;5010545;28;20111;-61
2022/12/01 07:46:26;;;;;;;114.68;38.10;;;;;;;;;;4993613;28;20057;-62
2022/12/01 07:48:52;;;;;;;122.82;35.92;;;;;;;;;;4992257;28;20052;-62
2022/12/01 07:51:19;;;;;;;91.55;30.85;;;;;;;;;;5001558;28;20128;-61
2022/12/01 07:53:46;;;;;;;107.05;33.67;;;;;;;;;;5011751;28;20052;-61
2022/12/01 07:56:12;;;;;;;134.80;36.00;;;;;;;;;;4993177;28;20446;-61
2022/12/01 07:58:39;;;;;;;101.15;33.25;;;;;;;;;;4994934;28;20050;-61
2022/12/01 08:01:06;;;;;;;127.90;39.80;;;;;;;;;;5010965;28;20065;-61
2022/12/01 08:03:32;;;;;;;130.43;38.95;;;;;;;;;;4999492;28;20495;-61
2022/12/01 08:05:59;;;;;;;128.82;38.03;;;;;;;;;;5000092;28;20132;-61
2022/12/01 08:08:25;;;;;;;122.85;37.28;;;;;;;;;;5011996;28;20080;-61
2022/12/01 08:10:52;;;;;;;163.95;42.72;;;;;;;;;;4978092;28;20085;-61
2022/12/01 08:13:19;;;;;;;159.40;41.97;;;;;;;;;;4997720;28;20104;-62
2022/12/01 08:15:45;;;;;;;134.23;40.10;;;;;;;;;;5011821;28;20520;-61
2022/12/01 08:18:11;;;;;;;153.93;41.00;;;;;;;;;;5010888;28;20125;-63
2022/12/01 08:20:37;;;;;;;141.75;39.25;;;;;;;;;;5012225;28;20058;-61
2022/12/01 08:23:04;;;;;;;144.05;38.50;;;;;;;;;;5010176;28;20172;-61
2022/12/01 08:25:31;;;;;;;164.13;42.65;;;;;;;;;;4977052;28;20568;-61
2022/12/01 08:27:59;;;;;;;178.15;44.72;;;;;;;;;;5029712;28;20069;-61
2022/12/01 08:30:25;;;;;;;152.45;42.53;;;;;;;;;;5031605;28;20057;-61
2022/12/01 08:32:54;;;;;;;180.82;45.33;;;;;;;;;;5030162;28;20129;-61
2022/12/01 08:35:20;;;;;;;153.77;45.08;;;;;;;;;;5030450;28;20037;-61
2022/12/01 08:37:46;;;;;;;174.90;44.30;;;;;;;;;;5031631;28;20049;-61
2022/12/01 08:40:12;;;;;;;190.27;46.60;;;;;;;;;;5031252;28;20054;-61
2022/12/01 08:42:39;;;;;;;191.35;47.42;;;;;;;;;;5030795;28;20080;-61
2022/12/01 08:45:05;;;;;;;200.50;49.58;;;;;;;;;;5031624;28;20111;-61
2022/12/01 08:47:31;;;;;;;180.23;46.13;;;;;;;;;;5030116;28;20049;-62
2022/12/01 08:49:57;;;;;;;152.70;47.30;;;;;;;;;;5026490;28;20045;-61
2022/12/01 08:52:23;;;;;;;174.75;45.63;;;;;;;;;;5012223;28;20132;-61
2022/12/01 08:54:49;;;;;;;168.00;46.83;;;;;;;;;;5030284;28;20049;-61
2022/12/01 08:57:15;;;;;;;173.50;48.80;;;;;;;;;;5011358;28;20107;-61
2022/12/01 08:59:43;;;;;;;160.88;47.20;;;;;;;;;;5031102;28;20041;-62
2022/12/01 09:02:12;;;;;;;160.57;44.72;;;;;;;;;;5030260;28;20108;-61
2022/12/01 09:04:38;;;;;;;162.18;46.00;;;;;;;;;;5026127;28;20453;-61
2022/12/01 09:07:04;;;;;;;143.23;43.95;;;;;;;;;;5031231;28;20095;-63
2022/12/01 09:09:30;;;;;;;147.30;42.95;;;;;;;;;;5030861;28;20041;-61
2022/12/01 09:11:56;;;;;;;139.00;41.65;;;;;;;;;;5013101;28;20053;-61
2022/12/01 09:14:22;;;;;;;123.05;39.58;;;;;;;;;;5030404;28;20045;-61
2022/12/01 09:16:49;;;;;;;120.95;38.55;;;;;;;;;;5032585;28;20049;-61
2022/12/01 09:19:17;;;;;;;114.45;38.92;;;;;;;;;;5017102;28;20128;-61
2022/12/01 09:21:44;;;;;;;119.20;37.63;;;;;;;;;;5033975;28;20041;-61
2022/12/01 09:24:10;;;;;;;113.53;39.90;;;;;;;;;;5014831;28;20655;-61
2022/12/01 09:26:36;;;;;;;102.88;35.40;;;;;;;;;;5026840;28;20053;-61
2022/12/01 09:29:05;;;;;;;91.70;34.60;;;;;;;;;;5025100;28;20110;-61
2022/12/01 09:31:31;;;;;;;91.68;33.97;;;;;;;;;;5033105;28;20049;-61
2022/12/01 09:33:58;;;;;;;93.05;33.28;;;;;;;;;;5034338;28;20165;-60
2022/12/01 09:36:25;;;;;;;79.30;31.92;;;;;;;;;;5004353;28;20087;-61
2022/12/01 09:38:51;;;;;;;77.40;30.50;;;;;;;;;;5013173;28;20048;-61
2022/12/01 09:41:20;;;;;;;73.68;29.65;;;;;;;;;;5032159;28;20056;-61
2022/12/01 09:43:59;;;;;;;74.57;29.25;;;;;;;;;;5017120;28;20055;-61
2022/12/01 09:46:31;;;;;;;67.32;27.42;;;;;;;;;;5034070;28;20053;-61
2022/12/01 09:48:59;;;;;;;70.03;27.65;;;;;;;;;;5034316;28;20099;-61
2022/12/01 09:51:27;;;;;;;64.20;25.38;;;;;;;;;;5034680;28;20053;-61
2022/12/01 09:53:57;;;;;;;55.40;23.88;;;;;;;;;;5033138;28;20132;-61
2022/12/01 09:56:23;;;;;;;61.63;24.63;;;;;;;;;;5034696;28;20127;-61
2022/12/01 09:58:51;;;;;;;55.05;22.75;;;;;;;;;;5033127;28;20080;-61
2022/12/01 10:01:18;;;;;;;51.08;23.38;;;;;;;;;;5034505;28;20502;-61
2022/12/01 10:03:47;;;;;;;46.72;22.30;;;;;;;;;;5033977;28;20041;-61
2022/12/01 10:06:18;;;;;;;44.47;21.35;;;;;;;;;;5026690;28;20111;-58
2022/12/01 10:08:50;;;;;;;50.35;22.52;;;;;;;;;;5025809;28;20052;-57
2022/12/01 10:11:27;;;;;;;48.45;21.60;;;;;;;;;;5013459;28;20099;-56
2022/12/01 10:13:53;;;;;;;45.42;21.30;;;;;;;;;;5012579;28;20117;-54
2022/12/01 10:16:25;;;;;;;45.55;21.83;;;;;;;;;;5033849;28;20119;-56
2022/12/01 10:19:01;;;;;;;39.58;20.35;;;;;;;;;;5032399;28;20045;-57
2022/12/01 10:21:36;;;;;;;40.80;20.70;;;;;;;;;;5031490;28;20119;-56
2022/12/01 10:24:02;;;;;;;44.22;21.38;;;;;;;;;;5033789;28;20054;-56
2022/12/01 10:26:37;;;;;;;47.80;22.48;;;;;;;;;;5031537;28;20050;-56
2022/12/01 10:29:12;;;;;;;39.72;20.50;;;;;;;;;;5029072;28;20093;-55
2022/12/01 10:31:38;;;;;;;40.38;19.40;;;;;;;;;;5033171;28;20080;-56
2022/12/01 10:34:13;;;;;;;38.33;18.88;;;;;;;;;;5032691;28;20081;-56
2022/12/01 10:36:39;;;;;;;43.58;19.95;;;;;;;;;;5018134;23;20590;-58
2022/12/01 10:39:06;;;;;;;37.17;19.67;;;;;;;;;;4974236;28;20049;-56
2022/12/01 10:41:34;;;;;;;34.83;18.73;;;;;;;;;;4974489;28;20046;-56
2022/12/01 10:44:03;;;;;;;40.53;20.13;;;;;;;;;;4974467;28;20039;-56
2022/12/01 10:46:34;;;;;;;37.92;18.75;;;;;;;;;;4973993;28;20050;-55
2022/12/01 10:49:06;;;;;;;38.13;19.77;;;;;;;;;;4971681;28;20133;-56
2022/12/01 10:51:44;;;;;;;38.13;20.48;;;;;;;;;;4974290;28;20073;-56
2022/12/01 10:54:11;;;;;;;36.70;19.15;;;;;;;;;;5056781;22;20049;-56
2022/12/01 10:56:39;;;;;;;34.85;18.58;;;;;;;;;;5051391;28;20041;-56
2022/12/01 10:59:19;;;;;;;34.00;19.10;;;;;;;;;;5052184;28;20481;-56
2022/12/01 11:01:47;;;;;;;40.92;19.33;;;;;;;;;;5053286;28;20088;-55
2022/12/01 11:04:34;;;;;;;39.40;19.75;;;;;;;;;;5050740;28;20049;-57
2022/12/01 11:07:01;;;;;;;36.55;20.55;;;;;;;;;;5066882;28;20166;-56
2022/12/01 11:09:28;;;;;;;34.67;19.23;;;;;;;;;;5052087;28;20045;-56
2022/12/01 11:11:55;;;;;;;36.50;19.75;;;;;;;;;;5051950;28;20041;-56
2022/12/01 11:14:23;;;;;;;36.05;19.13;;;;;;;;;;5048661;28;20127;-56
2022/12/01 11:16:51;;;;;;;37.53;20.15;;;;;;;;;;5051090;28;20040;-56
2022/12/01 11:19:19;;;;;;;37.42;19.88;;;;;;;;;;5049674;28;20036;-54
2022/12/01 11:21:46;;;;;;;34.10;18.20;;;;;;;;;;5052662;28;20044;-55
2022/12/01 11:24:30;;;;;;;33.92;18.38;;;;;;;;;;5047194;28;20064;-56
2022/12/01 11:26:57;;;;;;;38.33;19.75;;;;;;;;;;5048460;28;20052;-54
2022/12/01 11:29:28;;;;;;;30.83;16.67;;;;;;;;;;5051423;28;20051;-56
2022/12/01 11:31:55;;;;;;;32.08;17.55;;;;;;;;;;5052223;28;20041;-56
2022/12/01 11:34:26;;;;;;;31.83;17.77;;;;;;;;;;5049742;28;20148;-56
2022/12/01 11:36:54;;;;;;;35.08;18.65;;;;;;;;;;5051884;28;20037;-56
2022/12/01 11:39:26;;;;;;;36.67;18.90;;;;;;;;;;5050872;28;20037;-56
2022/12/01 11:42:00;;;;;;;29.33;17.45;;;;;;;;;;5051246;28;20060;-56
2022/12/01 11:44:26;;;;;;;28.60;15.32;;;;;;;;;;5049693;28;20047;-55
2022/12/01 11:46:52;;;;;;;29.30;14.48;;;;;;;;;;5048998;28;20041;-54
2022/12/01 11:49:20;;;;;;;28.67;16.15;;;;;;;;;;5052066;28;20051;-55
2022/12/01 11:51:46;;;;;;;28.75;15.60;;;;;;;;;;5052477;28;20554;-55
2022/12/01 11:54:14;;;;;;;24.85;13.85;;;;;;;;;;5049933;28;20098;-53
2022/12/01 11:56:41;;;;;;;25.55;14.68;;;;;;;;;;5051651;28;20047;-55
2022/12/01 11:59:27;;;;;;;26.95;14.02;;;;;;;;;;5050755;28;20381;-55
2022/12/01 12:01:59;;;;;;;26.98;15.75;;;;;;;;;;5051515;28;20457;-55
2022/12/01 12:04:25;;;;;;;27.80;14.30;;;;;;;;;;5047380;28;20069;-55
2022/12/01 12:07:06;;;;;;;25.92;14.52;;;;;;;;;;5051711;28;20134;-55
2022/12/01 12:09:41;;;;;;;26.00;13.95;;;;;;;;;;5043454;28;20413;-55
2022/12/01 12:12:23;;;;;;;29.45;15.68;;;;;;;;;;5050203;28;20036;-54
2022/12/01 12:14:49;;;;;;;30.83;16.55;;;;;;;;;;5048640;28;20256;-54
2022/12/01 12:17:15;;;;;;;24.33;12.52;;;;;;;;;;5039134;28;20124;-55
2022/12/01 12:20:20;;;;;;;31.10;14.98;;;7.90;99.90;;;;;;5052861;28;20037;-55
2022/12/01 12:23:05;;;;;;;25.38;13.82;;;;;;;;;;4955014;28;20055;-54
2022/12/01 12:25:47;;;;;;;22.52;13.63;;;;;;;;;;4968278;28;20487;-53
2022/12/01 12:28:16;;;;;;;21.63;12.05;;;;;;;;;;4970601;28;20047;-55
2022/12/01 12:30:46;;;;;;;21.85;11.63;;;;;;;;;;4970498;28;20134;-54
2022/12/01 12:33:21;;;;;;;20.33;12.77;;;;;;;;;;4951880;29;20594;-55
2022/12/01 12:35:50;;;;;;;23.70;13.02;;;;;;;;;;4969338;28;20125;-55
2022/12/01 12:38:28;;;;;;;25.38;13.38;;;;;;;;;;4970259;28;20503;-55
2022/12/01 12:40:57;;;;;;;19.80;12.45;;;;;;;;;;4962060;28;20491;-57
2022/12/01 12:43:35;;;;;;;25.48;14.40;;;;;;;;;;4954845;28;20531;-57
2022/12/01 12:46:06;;;;;;;19.08;11.55;;;;;;;;;;4968108;28;20448;-58
2022/12/01 12:48:39;;;;;;;21.00;12.43;;;;;;;;;;4970554;28;20043;-57
2022/12/01 12:51:12;;;;;;;24.25;12.18;;;;;;;;;;4956486;28;20070;-58
2022/12/01 12:53:41;;;;;;;23.02;12.90;;;;;;;;;;4973711;28;20053;-60
2022/12/01 12:56:09;;;;;;;21.30;11.10;;;;;;;;;;4973198;28;20062;-58
2022/12/01 12:58:37;;;;;;;23.67;13.15;;;;;;;;;;4987372;28;20123;-59
2022/12/01 13:01:06;;;;;;;22.73;12.40;;;;;;;;;;5050611;28;20116;-58
2022/12/01 13:03:42;;;;;;;24.02;12.40;;;;;;;;;;5055572;28;20051;-57
2022/12/01 13:06:10;;;;;;;26.48;13.00;;;;;;;;;;5054176;28;20069;-58
2022/12/01 13:08:36;;;;;;;25.25;14.52;;;;;;;;;;5035714;28;20053;-58
2022/12/01 13:11:06;;;;;;;26.27;14.43;;;;;;;;;;5048414;28;20044;-58
2022/12/01 13:13:36;;;;;;;26.77;15.25;;;;;;;;;;5053830;28;20428;-57
2022/12/01 13:16:04;;;;;;;27.17;14.85;;;;;;;;;;5051363;28;20067;-58
2022/12/01 13:18:37;;;;;;;26.55;14.70;;;;;;;;;;5052585;28;20036;-59
2022/12/01 13:21:05;;;;;;;27.65;15.88;;;;;;;;;;5046326;28;20033;-58
2022/12/01 13:23:32;;;;;;;29.77;16.38;;;;;;;;;;5048581;28;20064;-57
2022/12/01 13:25:59;;;;;;;29.90;16.40;;;;;;;;;;5052875;28;20041;-57
2022/12/01 13:28:30;;;;;;;29.30;16.58;;;;;;;;;;5050322;28;20128;-58
2022/12/01 13:31:08;;;;;;;26.30;15.25;;;;;;;;;;5066303;28;20055;-58
2022/12/01 13:33:34;;;;;;;25.85;15.82;;;;;;;;;;5054285;28;20040;-58
2022/12/01 13:36:01;;;;;;;28.73;16.80;;;;;;;;;;5054554;28;20112;-58
2022/12/01 13:38:31;;;;;;;27.38;16.52;;;;;;;;;;5050995;28;20124;-58
2022/12/01 13:41:18;;;;;;;24.45;14.77;;;7.40;99.90;;;;;;5053641;28;20108;-58
2022/12/01 13:43:59;;;;;;;28.75;16.48;;;;;;;;;;5052544;28;20127;-58
2022/12/01 13:46:49;;;;;;;27.13;16.20;;;;;;;;;;5063385;28;20049;-58
2022/12/01 13:49:38;;;;;;;29.23;16.52;;;;;;;;;;5049925;28;20077;-58
2022/12/01 13:52:26;;;;;;;30.65;16.55;;;;;;;;;;5046008;28;20045;-58
2022/12/01 13:55:08;;;;;;;28.00;15.93;;;;;;;;;;5069442;28;20048;-59
2022/12/01 13:58:12;;;;;;;26.45;14.88;;;;;;;;;;5053098;28;20409;-58
2022/12/01 14:00:38;;;;;;;29.42;17.13;;;;;;;;;;5054657;28;20048;-57
2022/12/01 14:03:19;;;;;;;30.15;16.30;;;;;;;;;;5047215;28;20424;-58
2022/12/01 14:05:52;;;;;;;26.90;15.77;;;;;;;;;;5042904;28;20057;-58
2022/12/01 14:08:24;;;;;;;25.23;15.38;;;;;;;;;;5050289;28;20076;-58
2022/12/01 14:10:57;;;;;;;29.98;16.25;;;;;;;;;;5042961;28;20362;-58
2022/12/01 14:13:24;;;;;;;28.35;16.42;;;;;;;;;;5048799;28;20489;-58
2022/12/01 14:15:58;;;;;;;30.52;17.40;;;;;;;;;;5047850;28;20037;-57
2022/12/01 14:18:35;;;;;;;31.67;15.93;;;;;;;;;;5054346;28;20044;-58
2022/12/01 14:21:03;;;;;;;33.38;17.17;;;;;;;;;;5049256;28;20408;-58
2022/12/01 14:23:59;;;;;;;32.35;16.67;;;7.00;99.90;;;;;;5045059;28;20474;-58